CheckWX is a tool to help pilots better visualize weather data.  It is not intended as a substitute for an official pre-flight weather briefing.

23:42:44 UTC

KSEQ METAR
Randolph AFB Aux Airport
Seguin, Texas, USA
Current

45 mins ago

KSEQ 202258Z AUTO 03014KT 10SM OVC023 09/05 A3047 RMK AO2 SLP321 T00850053
Observed
Feb-20 @ 22:58 UTC
Wind
  • 030° at 14 KTS
Visibility
10 SM
Flight Rules
MVFR
Cloud Levels
  • Overcast at 2,300' AGL
Temperature
C / 48°F
Dewpoint
C / 41°F
Humidity
76%
Altimeter
30.47" Hg
Pressure
1031.82 hPa
Previous

2 hours ago

KSEQ 202158Z AUTO 02021G25KT 10SM OVC021 08/06 A3044 RMK AO2 PK WND 01027/00 SLP311 T00820055
Observed
Feb-20 @ 21:58 UTC
Wind
  • 020° at 21 KTS
  • Gusting to 25 KTS
Visibility
10 SM
Flight Rules
MVFR
Cloud Levels
  • Overcast at 2,100' AGL
Temperature
C / 46°F
Dewpoint
C / 43°F
Humidity
87%
Altimeter
30.44" Hg
Pressure
1030.82 hPa
Previous

3 hours ago

KSEQ 202058Z AUTO 02020G26KT 10SM OVC018 08/06 A3042 RMK AO2 PK WND 02029/30 RAE23 SLP304 P0000 60000 T00760057 55005
Observed
Feb-20 @ 20:58 UTC
Wind
  • 020° at 20 KTS
  • Gusting to 26 KTS
Visibility
10 SM
Flight Rules
MVFR
Cloud Levels
  • Overcast at 1,800' AGL
Temperature
C / 46°F
Dewpoint
C / 43°F
Humidity
87%
Altimeter
30.42" Hg
Pressure
1030.12 hPa
Current Rain
0.01"